Time;durP1;ratioP1;P1;durP2;ratioP2;P2;SDS_P1;SDS_P2;PMS_P1;PMS_P2;Temp;Humidity;BMP_temperature;BMP_pressure;BME280_temperature;BME280_humidity;BME280_pressure;Samples;Min_cycle;Max_cycle;Signal;HPM_P1;HPM_P2
2023/10/20 00:00:49;;;;;;;3.95;2.80;;;16.20;99.90;;;;;;4153981;28;20034;-74
2023/10/20 00:02:50;;;;;;;3.25;2.63;;;16.20;99.90;;;;;;4155688;28;20025;-74
2023/10/20 00:04:51;;;;;;;2.40;2.20;;;16.20;99.90;;;;;;4155237;28;20470;-75
2023/10/20 00:06:51;;;;;;;6.10;2.67;;;16.20;99.90;;;;;;4151109;28;20037;-74
2023/10/20 00:08:52;;;;;;;3.17;2.58;;;16.20;99.90;;;;;;4155249;28;20052;-74
2023/10/20 00:10:57;;;;;;;3.47;2.60;;;16.20;99.90;;;;;;4155539;28;20033;-74
2023/10/20 00:12:59;;;;;;;4.20;2.80;;;16.20;99.90;;;;;;4154637;28;20038;-76
2023/10/20 00:15:01;;;;;;;3.85;2.58;;;16.20;99.90;;;;;;4158408;28;20042;-75
2023/10/20 00:17:01;;;;;;;3.80;3.10;;;16.20;99.90;;;;;;4136585;28;20046;-75
2023/10/20 00:19:02;;;;;;;5.55;3.20;;;16.20;99.90;;;;;;4154694;28;20033;-75
2023/10/20 00:21:03;;;;;;;3.70;2.88;;;16.20;99.90;;;;;;4135531;28;20046;-76
2023/10/20 00:23:05;;;;;;;4.35;3.20;;;16.20;99.90;;;;;;4160046;28;20056;-75
2023/10/20 00:25:06;;;;;;;5.22;3.00;;;16.10;99.90;;;;;;4158111;28;24608;-77
2023/10/20 00:27:06;;;;;;;3.83;2.90;;;16.10;99.90;;;;;;4158408;28;20060;-76
2023/10/20 00:29:08;;;;;;;4.60;2.78;;;16.10;99.90;;;;;;4159808;28;20026;-76
2023/10/20 00:31:11;;;;;;;4.80;3.00;;;16.10;99.90;;;;;;4157792;28;20489;-76
2023/10/20 00:33:11;;;;;;;5.20;3.60;;;16.00;99.90;;;;;;4157933;28;20065;-76
2023/10/20 00:35:14;;;;;;;4.75;3.78;;;16.00;99.90;;;;;;4158017;28;20081;-77
2023/10/20 00:37:15;;;;;;;4.65;3.40;;;16.00;99.90;;;;;;4141175;28;20052;-76
2023/10/20 00:39:16;;;;;;;5.20;3.67;;;15.90;99.90;;;;;;4158709;28;20022;-75
2023/10/20 00:41:17;;;;;;;6.35;3.70;;;15.80;99.90;;;;;;4138246;28;20062;-75
2023/10/20 00:43:17;;;;;;;6.40;4.22;;;15.80;99.90;;;;;;4153667;28;20049;-75
2023/10/20 00:45:19;;;;;;;6.28;4.68;;;15.70;99.90;;;;;;4155755;28;20037;-75
2023/10/20 00:47:20;;;;;;;5.45;3.92;;;15.70;99.90;;;;;;4157996;28;20402;-75
2023/10/20 00:49:21;;;;;;;5.85;4.03;;;15.70;99.90;;;;;;4158018;28;20029;-75
2023/10/20 00:51:24;;;;;;;8.45;4.50;;;15.70;99.90;;;;;;4157225;28;20655;-77
2023/10/20 00:53:25;;;;;;;;;;;15.70;99.90;;;;;;4159592;28;20029;-77
2023/10/20 00:55:26;;;;;;;8.63;4.82;;;15.70;99.90;;;;;;4156845;28;19920;-74
2023/10/20 00:57:27;;;;;;;10.65;5.32;;;15.60;99.90;;;;;;4158058;28;20045;-75
2023/10/20 00:59:27;;;;;;;6.85;4.45;;;15.60;99.90;;;;;;4157870;28;20056;-75
2023/10/20 01:01:28;;;;;;;8.55;5.07;;;15.60;99.90;;;;;;4157088;28;20397;-76
2023/10/20 01:03:32;;;;;;;9.70;5.47;;;15.60;99.90;;;;;;4157707;28;20032;-75
2023/10/20 01:05:33;;;;;;;11.57;6.45;;;15.50;99.90;;;;;;4157245;28;20300;-76
2023/10/20 01:07:34;;;;;;;6.72;5.43;;;15.50;99.90;;;;;;4158540;28;20649;-75
2023/10/20 01:09:35;;;;;;;7.63;5.17;;;15.50;99.90;;;;;;4139811;28;20058;-75
2023/10/20 01:11:37;;;;;;;6.38;5.03;;;15.50;99.90;;;;;;4153323;28;20492;-76
2023/10/20 01:13:37;;;;;;;9.27;5.30;;;15.50;99.90;;;;;;4158210;28;20048;-76
2023/10/20 01:15:39;;;;;;;9.27;5.80;;;15.50;99.90;;;;;;4157286;28;20034;-76
2023/10/20 01:17:39;;;;;;;8.20;6.10;;;15.40;99.90;;;;;;4156665;28;20044;-75
2023/10/20 01:19:40;;;;;;;7.85;5.60;;;15.50;99.90;;;;;;4158731;28;20030;-75
2023/10/20 01:21:41;;;;;;;7.00;5.22;;;15.40;99.90;;;;;;4156258;28;20401;-76
2023/10/20 01:23:42;;;;;;;7.40;5.70;;;15.50;99.90;;;;;;4158400;28;20034;-76
2023/10/20 01:25:43;;;;;;;8.82;5.55;;;15.40;99.90;;;;;;4156595;28;20037;-75
2023/10/20 01:27:43;;;;;;;8.95;5.88;;;15.40;99.90;;;;;;4157477;28;20084;-76
2023/10/20 01:29:44;;;;;;;8.55;5.63;;;15.40;99.90;;;;;;4157906;28;20044;-76
2023/10/20 01:31:45;;;;;;;9.52;5.75;;;15.40;99.90;;;;;;4149462;28;20029;-76
2023/10/20 01:33:45;;;;;;;9.77;5.93;;;15.30;99.90;;;;;;4155796;28;20041;-67
2023/10/20 01:35:46;;;;;;;8.73;5.63;;;15.30;99.90;;;;;;4135019;28;20517;-68
2023/10/20 01:37:47;;;;;;;10.90;6.50;;;15.30;99.90;;;;;;4155829;28;20072;-68
2023/10/20 01:39:47;;;;;;;10.52;6.15;;;15.30;99.90;;;;;;4139037;28;20037;-68
2023/10/20 01:41:48;;;;;;;9.02;5.88;;;15.30;99.90;;;;;;4154968;28;20480;-68
2023/10/20 01:43:49;;;;;;;8.25;6.03;;;15.30;99.90;;;;;;4153740;28;20030;-67
2023/10/20 01:45:50;;;;;;;10.10;5.97;;;15.20;99.90;;;;;;4138806;28;20097;-67
2023/10/20 01:47:50;;;;;;;10.23;6.32;;;15.20;99.90;;;;;;4155430;28;20120;-67
2023/10/20 01:49:51;;;;;;;8.85;5.63;;;15.20;99.90;;;;;;4157081;28;20413;-67
2023/10/20 01:51:51;;;;;;;7.75;5.68;;;15.20;99.90;;;;;;4154390;28;20038;-67
2023/10/20 01:53:52;;;;;;;10.13;6.03;;;15.30;99.90;;;;;;4155227;28;20037;-67
2023/10/20 01:55:53;;;;;;;11.52;5.68;;;15.30;99.90;;;;;;4155620;28;20485;-67
2023/10/20 01:57:54;;;;;;;7.82;5.38;;;15.30;99.90;;;;;;4156243;28;20049;-67
2023/10/20 01:59:54;;;;;;;7.95;5.13;;;15.30;99.90;;;;;;4157938;28;20535;-67
2023/10/20 02:01:55;;;;;;;9.98;6.18;;;15.30;99.90;;;;;;4154250;28;20487;-67
2023/10/20 02:03:55;;;;;;;8.93;5.88;;;15.30;99.90;;;;;;4152268;28;20048;-67
2023/10/20 02:05:56;;;;;;;8.80;6.10;;;15.30;99.90;;;;;;4153198;28;20041;-68
2023/10/20 02:07:57;;;;;;;10.65;5.93;;;15.20;99.90;;;;;;4155320;28;20397;-68
2023/10/20 02:09:58;;;;;;;9.18;6.57;;;15.20;99.90;;;;;;4154919;28;20034;-68
2023/10/20 02:11:58;;;;;;;7.70;5.75;;;15.20;99.90;;;;;;4153866;28;20459;-67
2023/10/20 02:13:59;;;;;;;8.68;5.40;;;15.20;99.90;;;;;;4156620;28;20036;-67
2023/10/20 02:15:59;;;;;;;8.05;5.43;;;15.20;99.90;;;;;;4153825;28;20499;-67
2023/10/20 02:18:00;;;;;;;8.50;5.63;;;15.20;99.90;;;;;;4156111;28;20477;-67
2023/10/20 02:20:01;;;;;;;8.68;5.75;;;15.30;99.90;;;;;;4157050;28;20048;-67
2023/10/20 02:22:01;;;;;;;10.10;6.35;;;15.20;99.90;;;;;;4156058;28;20640;-67
2023/10/20 02:24:02;;;;;;;9.48;6.57;;;15.20;99.90;;;;;;4156868;28;20069;-67
2023/10/20 02:26:07;;;;;;;9.50;6.45;;;15.20;99.90;;;;;;4153192;28;20038;-67
2023/10/20 02:28:08;;;;;;;10.23;6.43;;;15.20;99.90;;;;;;4155919;28;20060;-67
2023/10/20 02:30:13;;;;;;;10.45;6.68;;;15.20;99.90;;;;;;4156966;28;20104;-68
2023/10/20 02:32:14;;;;;;;13.23;7.78;;;15.20;99.90;;;;;;4135568;28;20685;-67
2023/10/20 02:34:14;;;;;;;13.93;8.18;;;15.20;99.90;;;;;;4152382;28;20041;-67
2023/10/20 02:36:20;;;;;;;11.18;7.30;;;15.20;99.90;;;;;;4156531;28;20053;-67
2023/10/20 02:38:21;;;;;;;9.82;6.60;;;15.20;99.90;;;;;;4141664;28;20050;-67
2023/10/20 02:40:21;;;;;;;14.57;8.30;;;15.20;99.90;;;;;;4154176;28;20464;-67
2023/10/20 02:42:22;;;;;;;12.35;7.72;;;15.20;99.90;;;;;;4139043;28;20037;-67
2023/10/20 02:44:22;;;;;;;11.73;7.28;;;15.20;99.90;;;;;;4156760;28;20036;-74
2023/10/20 02:46:23;;;;;;;9.75;7.07;;;15.20;99.90;;;;;;4138864;28;20097;-74
2023/10/20 02:48:24;;;;;;;11.27;7.40;;;15.10;99.90;;;;;;4158305;28;20083;-74
2023/10/20 02:50:26;;;;;;;8.75;6.25;;;15.10;99.90;;;;;;4156490;28;20057;-75
2023/10/20 02:52:27;;;;;;;;;;;15.20;99.90;;;;;;4156655;28;20045;-73
2023/10/20 02:54:27;;;;;;;10.98;7.63;;;15.10;99.90;;;;;;4155752;28;19909;-74
2023/10/20 02:56:28;;;;;;;9.32;6.30;;;15.10;99.90;;;;;;4156416;28;20025;-74
2023/10/20 02:58:29;;;;;;;12.95;7.13;;;15.20;99.90;;;;;;4156921;28;20490;-74
2023/10/20 03:00:29;;;;;;;10.82;7.40;;;15.20;99.90;;;;;;4155589;28;20121;-74
2023/10/20 03:02:30;;;;;;;10.05;7.15;;;15.10;99.90;;;;;;4156296;28;20095;-74
2023/10/20 03:04:31;;;;;;;9.80;6.65;;;15.10;99.90;;;;;;4139601;28;20097;-74
2023/10/20 03:06:32;;;;;;;10.65;6.30;;;15.10;99.90;;;;;;4155999;28;20038;-74
2023/10/20 03:08:34;;;;;;;9.20;6.80;;;15.10;99.90;;;;;;4156933;28;20512;-75
2023/10/20 03:10:35;;;;;;;;;;;15.10;99.90;;;;;;4155762;28;20099;-75
2023/10/20 03:12:36;;;;;;;13.00;6.32;;;15.20;99.90;;;;;;4156421;28;20273;-74
2023/10/20 03:14:36;;;;;;;8.05;6.15;;;15.20;99.90;;;;;;4156160;28;20049;-74
2023/10/20 03:16:42;;;;;;;11.80;7.72;;;15.10;99.90;;;;;;4154765;28;20033;-75
2023/10/20 03:18:43;;;;;;;12.52;7.97;;;15.10;99.90;;;;;;4123714;28;20042;-74
2023/10/20 03:20:44;;;;;;;13.35;7.47;;;15.00;99.90;;;;;;4155912;28;20184;-75
2023/10/20 03:22:44;;;;;;;11.68;8.45;;;15.00;99.90;;;;;;4155525;28;20044;-74
2023/10/20 03:24:45;;;;;;;11.18;7.50;;;15.00;99.90;;;;;;4123716;28;20173;-75
2023/10/20 03:26:46;;;;;;;11.77;7.93;;;15.00;99.90;;;;;;4154673;28;20029;-75
2023/10/20 03:28:46;;;;;;;11.25;7.53;;;15.00;99.90;;;;;;4156797;28;20124;-72
2023/10/20 03:30:47;;;;;;;9.48;6.75;;;15.00;99.90;;;;;;4155134;28;20128;-73
2023/10/20 03:32:48;;;;;;;12.57;7.75;;;15.00;99.90;;;;;;4156162;28;20516;-74
2023/10/20 03:34:49;;;;;;;9.77;6.88;;;15.00;99.90;;;;;;4139942;28;20034;-74
2023/10/20 03:36:51;;;;;;;12.15;7.65;;;15.00;99.90;;;;;;4155661;28;20036;-74
2023/10/20 03:38:52;;;;;;;12.50;7.60;;;15.00;99.90;;;;;;4154359;28;20496;-74
2023/10/20 03:40:53;;;;;;;12.18;7.85;;;15.00;99.90;;;;;;4156531;28;20029;-74
2023/10/20 03:42:53;;;;;;;10.02;6.55;;;15.00;99.90;;;;;;4156529;28;20275;-75
2023/10/20 03:44:54;;;;;;;10.25;7.43;;;15.00;99.90;;;;;;4156906;28;20057;-74
2023/10/20 03:46:59;;;;;;;12.30;7.97;;;15.00;99.90;;;;;;4137472;28;20042;-74
2023/10/20 03:49:04;;;;;;;10.02;7.15;;;15.00;99.90;;;;;;4156152;28;20079;-74
2023/10/20 03:51:10;;;;;;;8.48;6.28;;;15.00;99.90;;;;;;4152416;28;20037;-75
2023/10/20 03:53:15;;;;;;;9.55;7.00;;;15.00;99.90;;;;;;4156520;28;20476;-75
2023/10/20 03:55:16;;;;;;;10.13;7.60;;;15.00;99.90;;;;;;4154752;28;20036;-68
2023/10/20 03:57:17;;;;;;;10.88;7.90;;;15.00;99.90;;;;;;4163753;28;20124;-68
2023/10/20 03:59:17;;;;;;;10.05;7.53;;;15.00;99.90;;;;;;4163315;28;20025;-68
2023/10/20 04:01:18;;;;;;;12.25;8.52;;;15.10;99.90;;;;;;4156086;28;20033;-67
2023/10/20 04:03:18;;;;;;;10.93;7.80;;;15.00;99.90;;;;;;4158466;28;20053;-68
2023/10/20 04:05:19;;;;;;;11.13;8.15;;;15.10;99.90;;;;;;4158750;28;20041;-68
2023/10/20 04:07:20;;;;;;;13.82;7.78;;;15.10;99.90;;;;;;4159105;28;20037;-68
2023/10/20 04:09:20;;;;;;;10.40;7.78;;;15.00;99.90;;;;;;4172013;28;20029;-68
2023/10/20 04:11:21;;;;;;;9.70;7.35;;;15.00;99.90;;;;;;4160567;28;20045;-67
2023/10/20 04:13:23;;;;;;;10.23;7.97;;;15.10;99.90;;;;;;4163324;28;20110;-67
2023/10/20 04:15:26;;;;;;;11.00;7.93;;;15.10;99.90;;;;;;4157357;28;20110;-67
2023/10/20 04:17:26;;;;;;;11.38;7.38;;;15.10;99.90;;;;;;4163852;28;20045;-67
2023/10/20 04:19:27;;;;;;;13.65;8.52;;;15.00;99.90;;;;;;4158734;28;20072;-67
2023/10/20 04:21:29;;;;;;;10.02;7.75;;;15.10;99.90;;;;;;4153211;28;20056;-68
2023/10/20 04:23:29;;;;;;;11.80;8.38;;;15.00;99.90;;;;;;4158840;28;20096;-68
2023/10/20 04:25:33;;;;;;;9.90;7.03;;;15.00;99.90;;;;;;4157058;28;20037;-67
2023/10/20 04:27:47;;;;;;;12.23;7.82;;;15.10;99.90;;;;;;4152802;28;20033;-67
2023/10/20 04:44:57;;;;;;;15.25;9.05;;;15.00;99.90;;;;;;4171507;28;20477;-69
2023/10/20 04:52:58;;;;;;;9.18;7.65;;;15.00;99.90;;;;;;4164716;28;20067;-67
2023/10/20 04:59:24;;;;;;;10.35;7.60;;;15.00;99.90;;;;;;4160398;28;20080;-67
2023/10/20 05:01:40;;;;;;;10.40;7.47;;;15.00;99.90;;;;;;4157020;28;20436;-67
2023/10/20 05:03:49;;;;;;;11.95;7.97;;;15.00;99.90;;;;;;4159575;28;20033;-67
2023/10/20 05:05:58;;;;;;;9.52;7.68;;;15.00;99.90;;;;;;4143509;28;20034;-67
2023/10/20 05:08:08;;;;;;;9.30;7.07;;;15.00;99.90;;;;;;4159371;28;20485;-67
2023/10/20 05:10:09;;;;;;;9.65;7.75;;;15.00;99.90;;;;;;4164983;28;20529;-67
2023/10/20 05:12:10;;;;;;;9.05;7.10;;;15.00;99.90;;;;;;4166138;28;20057;-67
2023/10/20 05:14:11;;;;;;;10.52;7.28;;;15.00;99.90;;;;;;4160617;28;20040;-67
2023/10/20 05:16:12;;;;;;;9.82;7.20;;;15.00;99.90;;;;;;4168169;28;20116;-67
2023/10/20 05:18:12;;;;;;;10.38;7.05;;;15.00;99.90;;;;;;4158970;28;20455;-67
2023/10/20 05:20:13;;;;;;;11.82;7.43;;;15.10;99.90;;;;;;4164383;28;20057;-71
2023/10/20 05:22:14;;;;;;;11.75;7.55;;;15.00;99.90;;;;;;4158467;28;20080;-71
2023/10/20 05:24:15;;;;;;;10.40;7.57;;;15.00;99.90;;;;;;4159654;28;20125;-71
2023/10/20 05:26:15;;;;;;;11.20;8.13;;;15.00;99.90;;;;;;4159026;28;20044;-71
2023/10/20 05:28:16;;;;;;;11.98;7.50;;;15.00;99.90;;;;;;4160590;28;20509;-71
2023/10/20 05:30:17;;;;;;;10.68;7.72;;;15.00;99.90;;;;;;4168114;28;20041;-71
2023/10/20 05:32:18;;;;;;;11.75;7.78;;;15.00;99.90;;;;;;4161916;28;20040;-71
2023/10/20 05:34:19;;;;;;;13.27;7.10;;;15.00;99.90;;;;;;4156789;28;20037;-71
2023/10/20 05:36:20;;;;;;;10.95;7.75;;;15.00;99.90;;;;;;4164952;28;20049;-71
2023/10/20 05:38:20;;;;;;;14.93;8.40;;;15.00;99.90;;;;;;4161926;28;20044;-71
2023/10/20 05:40:21;;;;;;;14.38;9.52;;;15.00;99.90;;;;;;4160532;28;20123;-71
2023/10/20 05:42:22;;;;;;;11.13;8.45;;;15.00;99.90;;;;;;4167827;28;20044;-71
2023/10/20 05:44:23;;;;;;;11.77;8.75;;;15.00;99.90;;;;;;4161630;28;20442;-71
2023/10/20 05:46:23;;;;;;;11.43;8.55;;;15.00;99.90;;;;;;4157538;28;20116;-71
2023/10/20 05:48:24;;;;;;;14.70;9.25;;;15.00;99.90;;;;;;4160073;28;20468;-71
2023/10/20 05:50:25;;;;;;;13.75;9.55;;;15.10;99.90;;;;;;4167554;28;20048;-71
2023/10/20 05:52:25;;;;;;;15.48;9.27;;;15.00;99.90;;;;;;4164729;28;20583;-71
2023/10/20 05:54:26;;;;;;;12.63;9.50;;;15.00;99.90;;;;;;4163861;28;20163;-71
2023/10/20 05:56:27;;;;;;;13.25;10.60;;;15.10;99.90;;;;;;4164610;28;20037;-71
2023/10/20 05:58:28;;;;;;;15.23;9.98;;;15.10;99.90;;;;;;4166196;28;20041;-71
2023/10/20 06:00:29;;;;;;;16.05;10.75;;;15.10;99.90;;;;;;4154836;28;20112;-71
2023/10/20 06:02:31;;;;;;;14.00;10.15;;;15.10;99.90;;;;;;4161591;28;20044;-71
2023/10/20 06:04:34;;;;;;;17.58;11.43;;;15.00;99.90;;;;;;4160202;28;20037;-71
2023/10/20 06:06:34;;;;;;;15.40;11.90;;;15.10;99.90;;;;;;4165227;28;20304;-72
2023/10/20 06:08:35;;;;;;;18.15;11.43;;;15.00;99.90;;;;;;4158243;28;20401;-71
2023/10/20 06:10:36;;;;;;;14.65;10.90;;;15.00;99.90;;;;;;4161098;28;20049;-71
2023/10/20 06:12:38;;;;;;;16.13;10.70;;;15.00;99.90;;;;;;4160475;28;20172;-71
2023/10/20 06:14:38;;;;;;;15.38;10.88;;;15.10;99.90;;;;;;4141056;28;20061;-70
2023/10/20 06:16:39;;;;;;;15.90;12.20;;;15.10;99.90;;;;;;4158988;28;20042;-70
2023/10/20 06:18:41;;;;;;;14.65;11.25;;;15.00;99.90;;;;;;4160931;28;20040;-70
2023/10/20 06:20:42;;;;;;;14.38;10.85;;;15.10;99.90;;;;;;4159257;28;20084;-71
2023/10/20 06:22:44;;;;;;;16.02;11.80;;;15.00;99.90;;;;;;4161558;28;20036;-71
2023/10/20 06:24:45;;;;;;;14.70;11.68;;;15.10;99.90;;;;;;4162341;28;20041;-71
2023/10/20 06:26:47;;;;;;;15.68;12.18;;;15.10;99.90;;;;;;4162883;28;20040;-71
2023/10/20 06:28:49;;;;;;;17.40;11.75;;;15.00;99.90;;;;;;4154075;28;20509;-72
2023/10/20 06:30:51;;;;;;;16.43;12.17;;;15.00;99.90;;;;;;4159714;28;20420;-72
2023/10/20 06:32:56;;;;;;;17.52;12.00;;;15.10;99.90;;;;;;4161159;28;20060;-72
2023/10/20 06:35:00;;;;;;;13.80;10.57;;;15.10;99.90;;;;;;4156178;28;20056;-72
2023/10/20 06:37:13;;;;;;;13.80;10.57;;;15.10;99.90;;;;;;4159242;28;20116;-72
2023/10/20 06:39:15;;;;;;;;;;;15.10;99.90;;;;;;4162525;28;20116;-72
2023/10/20 06:41:16;;;;;;;16.30;11.48;;;15.10;99.90;;;;;;4151525;28;19917;-72
2023/10/20 06:43:16;;;;;;;16.08;11.45;;;15.10;99.90;;;;;;4164691;28;20508;-72
2023/10/20 06:45:17;;;;;;;13.30;11.32;;;15.10;99.90;;;;;;4160071;28;20104;-72
2023/10/20 06:47:18;;;;;;;16.85;11.75;;;15.10;99.90;;;;;;4158755;28;20042;-72
2023/10/20 06:49:19;;;;;;;15.68;11.95;;;15.00;99.90;;;;;;4153537;28;20029;-72
2023/10/20 06:51:19;;;;;;;12.60;10.00;;;15.00;99.90;;;;;;4158125;28;20057;-72
2023/10/20 06:53:20;;;;;;;14.00;10.55;;;15.00;99.90;;;;;;4163259;28;20091;-72
2023/10/20 06:55:21;;;;;;;15.27;11.55;;;15.00;99.90;;;;;;4158184;28;20051;-72
2023/10/20 06:57:23;;;;;;;13.77;10.10;;;15.00;99.90;;;;;;4159762;28;20084;-73
2023/10/20 06:59:24;;;;;;;15.15;11.57;;;15.00;99.90;;;;;;4159106;28;20199;-73
2023/10/20 07:01:26;;;;;;;15.15;9.77;;;15.00;99.90;;;;;;4159759;28;20044;-73
2023/10/20 07:03:27;;;;;;;13.82;10.18;;;15.00;99.90;;;;;;4159360;28;20033;-72
2023/10/20 07:05:27;;;;;;;14.95;10.60;;;15.00;99.90;;;;;;4154208;28;20816;-72
2023/10/20 07:07:28;;;;;;;15.35;11.15;;;15.00;99.90;;;;;;4159346;28;20045;-73
2023/10/20 07:09:29;;;;;;;16.67;11.05;;;14.90;99.90;;;;;;4153832;28;20037;-72
2023/10/20 07:11:30;;;;;;;14.65;10.60;;;15.00;99.90;;;;;;4160279;28;20144;-72
2023/10/20 07:13:31;;;;;;;14.27;10.98;;;15.00;99.90;;;;;;4161837;28;20033;-72
2023/10/20 07:15:33;;;;;;;14.10;10.65;;;15.00;99.90;;;;;;4155212;28;20685;-72
2023/10/20 07:17:34;;;;;;;16.33;11.57;;;14.90;99.90;;;;;;4159945;28;20525;-73
2023/10/20 07:19:35;;;;;;;13.32;10.13;;;14.90;99.90;;;;;;4166621;28;20283;-72
2023/10/20 07:21:36;;;;;;;12.98;9.57;;;14.90;99.90;;;;;;4153671;28;20953;-73
2023/10/20 07:23:36;;;;;;;14.57;9.75;;;14.90;99.90;;;;;;4165559;28;20040;-73
2023/10/20 07:25:37;;;;;;;11.90;9.63;;;14.90;99.90;;;;;;4162905;28;20033;-72
2023/10/20 07:27:37;;;;;;;11.88;9.40;;;15.00;99.90;;;;;;4164501;28;20045;-73
2023/10/20 07:29:38;;;;;;;13.75;10.23;;;15.00;99.90;;;;;;4151165;28;20444;-72
2023/10/20 07:31:40;;;;;;;15.38;9.93;;;14.90;99.90;;;;;;4156410;28;20107;-73
2023/10/20 07:33:41;;;;;;;12.07;9.70;;;14.90;99.90;;;;;;4142795;28;20854;-72
2023/10/20 07:35:42;;;;;;;13.75;8.90;;;14.90;99.90;;;;;;4161601;28;20272;-72
2023/10/20 07:37:43;;;;;;;13.68;9.48;;;15.00;99.90;;;;;;4158537;28;20140;-72
2023/10/20 07:39:44;;;;;;;11.85;8.98;;;15.00;99.90;;;;;;4159315;28;20071;-72
2023/10/20 07:41:45;;;;;;;12.07;9.13;;;15.00;99.90;;;;;;4154792;28;20037;-72
2023/10/20 07:43:46;;;;;;;11.00;8.52;;;14.90;99.90;;;;;;4159948;28;20525;-72
2023/10/20 07:45:46;;;;;;;11.50;8.88;;;14.90;99.90;;;;;;4158459;28;20037;-72
2023/10/20 07:47:47;;;;;;;18.42;10.85;;;14.90;99.90;;;;;;4170549;28;20048;-72
2023/10/20 07:49:48;;;;;;;13.80;9.75;;;14.90;99.90;;;;;;4158240;28;20042;-72
2023/10/20 07:51:48;;;;;;;13.07;8.15;;;14.90;99.90;;;;;;4154189;28;20041;-73
2023/10/20 07:53:49;;;;;;;12.57;9.18;;;14.80;99.90;;;;;;4157689;28;20037;-73
2023/10/20 07:55:49;;;;;;;11.23;8.30;;;14.90;99.90;;;;;;4154031;28;20117;-73
2023/10/20 07:57:50;;;;;;;14.40;8.32;;;14.90;99.90;;;;;;4157869;28;20045;-72
2023/10/20 07:59:52;;;;;;;9.95;8.23;;;14.80;99.90;;;;;;4157497;28;20163;-72
2023/10/20 08:01:52;;;;;;;10.67;8.70;;;14.80;99.90;;;;;;4161102;28;20178;-72
2023/10/20 08:03:53;;;;;;;9.95;7.65;;;14.80;99.90;;;;;;4174402;28;20548;-72
2023/10/20 08:05:54;;;;;;;11.18;7.72;;;14.80;99.90;;;;;;4154756;28;20179;-73
2023/10/20 08:08:01;;;;;;;10.73;7.65;;;14.80;99.90;;;;;;4157462;28;20478;-73
2023/10/20 08:10:02;;;;;;;10.35;7.22;;;14.80;99.90;;;;;;4157537;28;20064;-72
2023/10/20 08:12:04;;;;;;;9.20;6.78;;;14.80;99.90;;;;;;4157039;28;20061;-72
2023/10/20 08:14:05;;;;;;;8.40;7.10;;;14.80;99.90;;;;;;4156956;28;20041;-73
2023/10/20 08:16:06;;;;;;;8.38;6.95;;;14.70;99.90;;;;;;4155824;28;20448;-73
2023/10/20 08:18:07;;;;;;;9.43;7.28;;;14.70;99.90;;;;;;4157364;28;20038;-74
2023/10/20 08:20:09;;;;;;;9.07;7.40;;;14.70;99.90;;;;;;4154145;28;20108;-74
2023/10/20 08:22:10;;;;;;;7.35;6.03;;;14.60;99.90;;;;;;4164533;28;20040;-73
2023/10/20 08:24:10;;;;;;;7.18;6.07;;;14.70;99.90;;;;;;4157011;28;20397;-74
2023/10/20 08:26:19;;;;;;;8.57;5.97;;;14.70;99.90;;;;;;4156184;28;20034;-73
2023/10/20 08:28:19;;;;;;;8.43;6.60;;;14.70;99.90;;;;;;4157028;28;20053;-74
2023/10/20 08:30:23;;;;;;;9.40;6.72;;;14.60;99.90;;;;;;4153363;28;20068;-73
2023/10/20 08:32:24;;;;;;;8.55;6.60;;;14.60;99.90;;;;;;4165763;28;20053;-74
2023/10/20 08:34:25;;;;;;;12.25;6.20;;;14.60;99.90;;;;;;4157761;28;20029;-72
2023/10/20 08:36:26;;;;;;;7.28;5.72;;;14.60;99.90;;;;;;4154460;28;20492;-72
2023/10/20 08:38:26;;;;;;;7.40;5.53;;;14.60;99.90;;;;;;4158444;28;20080;-72
2023/10/20 08:40:35;;;;;;;5.43;4.45;;;14.60;99.90;;;;;;4156402;28;20489;-72
2023/10/20 08:42:38;;;;;;;6.10;5.00;;;14.60;99.90;;;;;;4158683;28;20057;-73
2023/10/20 08:44:39;;;;;;;6.95;5.25;;;14.60;99.90;;;;;;4160511;28;20046;-73
2023/10/20 08:46:41;;;;;;;7.60;5.07;;;14.60;99.90;;;;;;4156282;28;20125;-72
2023/10/20 08:48:43;;;;;;;5.90;4.55;;;14.60;99.90;;;;;;4159844;28;20243;-72
2023/10/20 08:50:46;;;;;;;6.50;4.50;;;14.60;99.90;;;;;;4172201;28;20029;-72
2023/10/20 08:52:47;;;;;;;7.32;4.18;;;14.50;99.90;;;;;;4160508;28;20038;-72
2023/10/20 08:54:48;;;;;;;5.22;3.90;;;14.60;99.90;;;;;;4156999;28;20041;-72
2023/10/20 08:56:49;;;;;;;6.13;3.60;;;14.50;99.90;;;;;;4158118;28;20034;-72
2023/10/20 08:58:50;;;;;;;4.70;4.00;;;14.50;99.90;;;;;;4160062;28;20087;-72
2023/10/20 09:00:51;;;;;;;4.57;3.60;;;14.60;99.90;;;;;;4158322;28;20049;-73
2023/10/20 09:02:58;;;;;;;4.53;3.42;;;14.50;99.90;;;;;;4161375;28;20445;-73
2023/10/20 09:04:58;;;;;;;4.90;3.28;;;14.50;99.90;;;;;;4160477;28;20049;-72
2023/10/20 09:07:00;;;;;;;5.45;3.13;;;14.50;99.90;;;;;;4155734;28;20022;-73
2023/10/20 09:09:05;;;;;;;5.18;3.53;;;14.50;99.90;;;;;;4160890;28;20524;-73
2023/10/20 09:11:10;;;;;;;6.68;4.00;;;14.50;99.90;;;;;;4152596;28;20409;-73
2023/10/20 09:13:11;;;;;;;5.80;3.67;;;14.50;99.90;;;;;;4157380;28;20121;-73
2023/10/20 09:15:12;;;;;;;6.95;3.45;;;14.60;99.90;;;;;;4156996;28;20033;-74
2023/10/20 09:17:22;;;;;;;6.40;4.25;;;14.60;99.90;;;;;;4159324;28;20465;-73
2023/10/20 09:19:23;;;;;;;8.18;4.28;;;14.60;99.90;;;;;;4158772;28;20037;-73
2023/10/20 09:21:26;;;;;;;10.35;3.88;;;14.60;99.90;;;;;;4157381;28;20068;-72
2023/10/20 09:23:27;;;;;;;6.88;3.60;;;14.60;99.90;;;;;;4156871;28;20117;-72
2023/10/20 09:25:27;;;;;;;6.43;3.13;;;14.60;99.90;;;;;;4159337;28;20029;-72
2023/10/20 09:27:28;;;;;;;6.47;3.35;;;14.60;99.90;;;;;;4160737;28;20041;-73
2023/10/20 09:29:30;;;;;;;5.78;3.40;;;14.60;99.90;;;;;;4154342;28;20048;-72
2023/10/20 09:31:32;;;;;;;4.97;3.28;;;14.60;99.90;;;;;;4161752;28;20392;-73
2023/10/20 09:33:32;;;;;;;5.93;3.00;;;14.60;99.90;;;;;;4155521;28;20037;-72
2023/10/20 09:35:39;;;;;;;7.05;3.42;;;14.60;99.90;;;;;;4158528;28;20033;-72
2023/10/20 09:37:41;;;;;;;5.28;3.00;;;14.60;99.90;;;;;;4159328;28;20033;-72
2023/10/20 09:39:43;;;;;;;4.55;3.25;;;14.70;99.90;;;;;;4160416;28;20055;-73
2023/10/20 09:41:48;;;;;;;4.68;3.22;;;14.60;99.90;;;;;;4160231;28;20061;-72
2023/10/20 09:43:53;;;;;;;3.95;3.10;;;14.60;99.90;;;;;;4158243;28;20040;-72
2023/10/20 09:46:07;;;;;;;3.65;3.10;;;14.60;99.90;;;;;;4156480;28;20123;-71
2023/10/20 09:48:18;;;;;;;4.55;2.92;;;14.60;99.90;;;;;;4155054;28;20120;-71
2023/10/20 09:50:20;;;;;;;4.30;3.13;;;14.60;99.90;;;;;;4156421;28;20477;-72
2023/10/20 09:52:21;;;;;;;4.38;3.10;;;14.60;99.90;;;;;;4158796;28;20095;-72
2023/10/20 09:54:31;;;;;;;4.32;3.17;;;14.50;99.90;;;;;;4157621;28;20124;-72
2023/10/20 09:56:32;;;;;;;3.38;2.70;;;14.50;99.90;;;;;;4159060;28;20580;-71
2023/10/20 09:58:36;;;;;;;3.53;2.92;;;14.50;99.90;;;;;;4157209;28;20456;-71
2023/10/20 10:00:40;;;;;;;4.55;2.97;;;14.50;99.90;;;;;;4157732;28;20030;-72
2023/10/20 10:02:41;;;;;;;3.83;2.70;;;14.50;99.90;;;;;;4161245;28;20033;-71
2023/10/20 10:04:43;;;;;;;2.83;2.53;;;14.50;99.90;;;;;;4159930;28;20030;-71
2023/10/20 10:06:47;;;;;;;4.18;2.97;;;14.50;99.90;;;;;;4156658;28;20738;-70
2023/10/20 10:08:47;;;;;;;3.58;2.75;;;14.50;99.90;;;;;;4158541;28;20255;-70
2023/10/20 10:10:49;;;;;;;3.63;2.67;;;14.40;99.90;;;;;;4157374;28;20328;-70
2023/10/20 10:12:59;;;;;;;3.53;2.60;;;14.40;99.90;;;;;;4156490;28;20084;-72
2023/10/20 10:15:12;;;;;;;3.22;2.42;;;14.40;99.90;;;;;;4151338;28;20109;-71
2023/10/20 10:17:12;;;;;;;4.38;2.53;;;14.40;99.90;;;;;;4157918;28;20072;-71
2023/10/20 10:19:13;;;;;;;2.90;2.38;;;14.30;99.90;;;;;;4159660;28;20096;-72
2023/10/20 10:21:32;;;;;;;3.80;2.50;;;14.20;99.90;;;;;;4154760;28;20049;-72
2023/10/20 10:23:33;;;;;;;5.13;2.80;;;14.20;99.90;;;;;;4159251;28;20041;-72
2023/10/20 10:25:41;;;;;;;4.15;2.20;;;14.20;99.90;;;;;;4158257;28;20037;-72
2023/10/20 10:27:42;;;;;;;4.28;2.28;;;14.20;99.90;;;;;;4153913;28;20091;-70
2023/10/20 10:30:05;;;;;;;4.13;2.53;;;14.20;99.90;;;;;;4154916;28;20037;-71
2023/10/20 10:32:19;;;;;;;2.28;2.08;;;14.20;99.90;;;;;;4159108;28;20489;-71
2023/10/20 10:34:19;;;;;;;3.28;2.50;;;14.20;99.90;;;;;;4154281;28;20093;-71
2023/10/20 10:36:20;;;;;;;4.68;2.45;;;14.10;99.90;;;;;;4152208;28;20113;-71
2023/10/20 10:38:22;;;;;;;3.17;2.30;;;14.20;99.90;;;;;;4156186;28;20046;-71
2023/10/20 10:40:23;;;;;;;2.90;2.33;;;14.20;99.90;;;;;;4157647;28;20362;-70
2023/10/20 10:42:27;;;;;;;3.97;2.63;;;14.20;99.90;;;;;;4159342;28;20037;-71
2023/10/20 10:44:36;;;;;;;3.92;2.42;;;14.10;99.90;;;;;;4157498;28;20049;-71
2023/10/20 10:46:36;;;;;;;4.53;2.60;;;14.20;99.90;;;;;;4148149;28;20637;-71
2023/10/20 10:48:38;;;;;;;2.97;2.60;;;14.20;99.90;;;;;;4156478;28;20041;-70
2023/10/20 10:50:40;;;;;;;5.90;3.42;;;14.10;99.90;;;;;;4151135;28;20025;-71
2023/10/20 10:52:41;;;;;;;3.78;2.58;;;14.20;99.90;;;;;;4154492;28;20474;-70
2023/10/20 10:54:43;;;;;;;3.92;2.72;;;14.20;99.90;;;;;;4156254;28;20117;-71
2023/10/20 10:56:44;;;;;;;5.78;2.83;;;14.20;99.90;;;;;;4154655;28;20061;-70